createdAt,value
2023-07-30T00:01:49.472Z,17.10
2023-07-30T00:04:16.408Z,17.10
2023-07-30T00:06:43.343Z,17.00
2023-07-30T00:09:10.259Z,17.00
2023-07-30T00:11:37.515Z,17.00
2023-07-30T00:14:04.879Z,17.00
2023-07-30T00:16:31.845Z,16.90
2023-07-30T00:18:58.837Z,16.90
2023-07-30T00:21:25.887Z,16.90
2023-07-30T00:23:52.856Z,16.90
2023-07-30T00:26:19.916Z,16.80
2023-07-30T00:28:46.849Z,16.80
2023-07-30T00:31:13.860Z,16.80
2023-07-30T00:33:40.831Z,16.90
2023-07-30T00:36:07.802Z,16.90
2023-07-30T00:38:34.742Z,17.00
2023-07-30T00:41:01.805Z,17.10
2023-07-30T00:43:30.211Z,17.10
2023-07-30T00:45:57.181Z,17.10
2023-07-30T00:48:24.104Z,17.10
2023-07-30T00:50:51.156Z,17.10
2023-07-30T00:53:18.089Z,17.10
2023-07-30T00:55:45.083Z,17.10
2023-07-30T00:58:12.071Z,17.10
2023-07-30T01:00:40.225Z,17.20
2023-07-30T01:03:07.445Z,17.10
2023-07-30T01:05:34.670Z,17.20
2023-07-30T01:08:01.661Z,17.20
2023-07-30T01:10:29.221Z,17.20
2023-07-30T01:12:56.295Z,17.10
2023-07-30T01:15:23.258Z,17.10
2023-07-30T01:17:50.330Z,16.90
2023-07-30T01:20:17.729Z,16.90
2023-07-30T01:22:44.717Z,16.90
2023-07-30T01:25:11.728Z,16.90
2023-07-30T01:27:39.872Z,16.90
2023-07-30T01:30:19.824Z,17.00
2023-07-30T01:32:46.914Z,17.00
2023-07-30T01:35:13.913Z,17.10
2023-07-30T01:37:41.017Z,17.00
2023-07-30T01:40:08.680Z,17.00
2023-07-30T01:42:35.726Z,16.90
2023-07-30T01:45:02.846Z,16.90
2023-07-30T01:47:29.939Z,16.90
2023-07-30T01:49:56.988Z,16.90
2023-07-30T01:52:24.037Z,16.80
2023-07-30T01:54:50.999Z,16.80
2023-07-30T01:57:18.033Z,16.70
2023-07-30T01:59:45.082Z,16.70
2023-07-30T02:02:12.134Z,16.60
2023-07-30T02:04:39.725Z,16.60
2023-07-30T02:07:06.717Z,16.60
2023-07-30T02:09:33.751Z,16.60
2023-07-30T02:12:01.970Z,16.60
2023-07-30T02:14:28.925Z,16.60
2023-07-30T02:17:01.375Z,16.60
2023-07-30T02:19:28.438Z,16.60
2023-07-30T02:21:55.411Z,16.70
2023-07-30T02:24:22.349Z,16.70
2023-07-30T02:26:50.016Z,16.70
2023-07-30T02:29:18.172Z,16.70
2023-07-30T02:31:45.254Z,16.70
2023-07-30T02:34:12.233Z,16.60
2023-07-30T02:36:39.267Z,16.70
2023-07-30T02:39:06.215Z,16.60
2023-07-30T02:41:33.175Z,16.60
2023-07-30T02:44:00.128Z,16.60
2023-07-30T02:46:27.096Z,16.70
2023-07-30T02:48:54.234Z,16.60
2023-07-30T02:51:21.212Z,16.70
2023-07-30T02:53:48.208Z,16.60
2023-07-30T02:56:15.156Z,16.70
2023-07-30T02:58:42.200Z,16.70
2023-07-30T03:01:09.878Z,16.70
2023-07-30T03:03:37.104Z,16.70
2023-07-30T03:06:04.193Z,16.80
2023-07-30T03:08:31.306Z,16.70
2023-07-30T03:10:59.075Z,16.80
2023-07-30T03:13:26.208Z,16.80
2023-07-30T03:15:53.173Z,16.70
2023-07-30T03:18:20.193Z,16.70
2023-07-30T03:20:47.253Z,16.80
2023-07-30T03:23:14.248Z,16.80
2023-07-30T03:25:41.209Z,16.80
2023-07-30T03:28:08.203Z,16.80
2023-07-30T03:30:35.422Z,16.70
2023-07-30T03:33:02.426Z,16.60
2023-07-30T03:35:29.419Z,16.60
2023-07-30T03:37:56.422Z,16.60
2023-07-30T03:40:24.064Z,16.60
2023-07-30T03:42:53.243Z,16.60
2023-07-30T03:45:20.227Z,16.60
2023-07-30T03:47:47.191Z,16.50
2023-07-30T03:50:14.161Z,16.60
2023-07-30T03:52:41.102Z,16.50
2023-07-30T03:55:08.843Z,16.50
2023-07-30T03:57:35.762Z,16.40
2023-07-30T04:00:04.395Z,16.30
2023-07-30T04:02:41.417Z,16.30
2023-07-30T04:05:08.471Z,16.20
2023-07-30T04:07:35.422Z,16.20
2023-07-30T04:10:02.415Z,16.10
2023-07-30T04:12:29.893Z,16.10
2023-07-30T04:14:56.846Z,16.00
2023-07-30T04:17:23.843Z,16.00
2023-07-30T04:19:50.939Z,15.90
2023-07-30T04:22:17.938Z,15.90
2023-07-30T04:24:44.902Z,15.90
2023-07-30T04:27:11.840Z,15.90
2023-07-30T04:29:38.851Z,15.90
2023-07-30T04:32:06.128Z,15.90
2023-07-30T04:34:33.056Z,15.90
2023-07-30T04:37:00.081Z,15.80
2023-07-30T04:39:27.915Z,15.80
2023-07-30T04:41:54.898Z,15.80
2023-07-30T04:44:21.949Z,15.80
2023-07-30T04:46:49.059Z,15.80
2023-07-30T04:49:16.142Z,15.80
2023-07-30T04:51:43.300Z,15.70
2023-07-30T04:54:10.248Z,15.80
2023-07-30T04:56:37.561Z,15.70
2023-07-30T04:59:04.604Z,15.80
2023-07-30T05:01:32.570Z,15.80
2023-07-30T05:03:59.617Z,15.80
2023-07-30T05:06:26.613Z,15.80
2023-07-30T05:08:53.563Z,15.80
2023-07-30T05:11:20.541Z,15.70
2023-07-30T05:13:47.707Z,15.70
2023-07-30T05:16:14.709Z,15.70
2023-07-30T05:18:43.970Z,15.70
2023-07-30T05:21:12.519Z,15.70
2023-07-30T05:23:39.484Z,15.80
2023-07-30T05:26:06.501Z,15.90
2023-07-30T05:28:34.428Z,16.00
2023-07-30T05:31:01.565Z,16.20
2023-07-30T05:33:28.563Z,16.60
2023-07-30T05:35:55.553Z,17.00
2023-07-30T05:38:22.548Z,17.10
2023-07-30T05:40:49.728Z,17.10
2023-07-30T05:43:16.731Z,17.50
2023-07-30T05:45:44.191Z,17.80
2023-07-30T05:48:11.594Z,18.60
2023-07-30T05:50:38.614Z,18.80
2023-07-30T05:53:05.545Z,18.60
2023-07-30T05:55:32.535Z,18.30
2023-07-30T05:57:59.669Z,18.10
2023-07-30T06:00:26.694Z,18.00
2023-07-30T06:02:53.742Z,18.10
2023-07-30T06:05:20.740Z,18.00
2023-07-30T06:07:47.733Z,17.90
2023-07-30T06:10:14.776Z,17.80
2023-07-30T06:12:41.744Z,17.80
2023-07-30T06:15:09.991Z,17.80
2023-07-30T06:17:37.084Z,17.70
2023-07-30T06:20:04.576Z,17.70
2023-07-30T06:22:31.516Z,17.70
2023-07-30T06:24:58.563Z,18.40
2023-07-30T06:27:25.635Z,19.00
2023-07-30T06:29:52.791Z,19.00
2023-07-30T06:32:19.817Z,18.70
2023-07-30T06:34:46.753Z,18.40
2023-07-30T06:37:13.852Z,18.50
2023-07-30T06:39:40.825Z,18.50
2023-07-30T06:42:07.942Z,18.50
2023-07-30T06:44:35.216Z,18.50
2023-07-30T06:47:02.499Z,18.90
2023-07-30T06:49:29.801Z,19.40
2023-07-30T06:51:56.788Z,19.20
2023-07-30T06:54:23.732Z,19.10
2023-07-30T06:56:50.733Z,18.90
2023-07-30T06:59:17.694Z,18.90
2023-07-30T07:01:44.761Z,19.00
2023-07-30T07:04:11.797Z,19.10
2023-07-30T07:06:38.801Z,19.50
2023-07-30T07:09:05.865Z,19.80
2023-07-30T07:11:33.029Z,20.20
2023-07-30T07:13:59.979Z,20.60
2023-07-30T07:16:26.988Z,20.90
2023-07-30T07:18:53.949Z,20.80
2023-07-30T07:21:21.890Z,20.60
2023-07-30T07:23:48.804Z,21.10
2023-07-30T07:26:15.800Z,21.70
2023-07-30T07:28:42.803Z,22.10
2023-07-30T07:31:09.894Z,22.60
2023-07-30T07:33:38.640Z,23.00
2023-07-30T07:36:06.733Z,23.40
2023-07-30T07:38:34.245Z,23.60
2023-07-30T07:41:01.578Z,23.50
2023-07-30T07:43:28.914Z,23.70
2023-07-30T07:45:55.952Z,24.00
2023-07-30T07:48:23.008Z,24.40
2023-07-30T07:50:50.025Z,24.50
2023-07-30T07:53:17.054Z,24.80
2023-07-30T07:55:44.049Z,24.70
2023-07-30T07:58:11.024Z,24.70
2023-07-30T08:00:37.997Z,24.90
2023-07-30T08:03:04.961Z,25.20
2023-07-30T08:05:32.067Z,25.60
2023-07-30T08:07:58.997Z,26.10
2023-07-30T08:10:25.974Z,26.20
2023-07-30T08:12:53.097Z,25.70
2023-07-30T08:15:20.127Z,26.00
2023-07-30T08:17:47.152Z,25.80
2023-07-30T08:20:14.157Z,26.20
2023-07-30T08:22:41.078Z,26.60
2023-07-30T08:25:08.339Z,26.60
2023-07-30T08:27:35.452Z,26.50
2023-07-30T08:30:02.414Z,26.70
2023-07-30T08:32:29.526Z,26.70
2023-07-30T08:34:56.589Z,25.80
2023-07-30T08:37:23.638Z,26.50
2023-07-30T08:39:50.642Z,26.70
2023-07-30T08:42:17.614Z,26.20
2023-07-30T08:44:44.717Z,26.50
2023-07-30T08:47:12.025Z,26.50
2023-07-30T08:49:39.003Z,25.50
2023-07-30T08:52:06.512Z,24.90
2023-07-30T08:54:33.509Z,23.90
2023-07-30T08:57:00.524Z,24.40
2023-07-30T08:59:28.142Z,25.10
2023-07-30T09:01:55.175Z,25.90
2023-07-30T09:04:22.156Z,26.40
2023-07-30T09:06:51.788Z,27.10
2023-07-30T09:09:20.561Z,27.20
2023-07-30T09:11:52.319Z,27.10
2023-07-30T09:14:20.459Z,26.20
2023-07-30T09:16:47.431Z,26.00
2023-07-30T09:19:18.472Z,26.20
2023-07-30T09:21:45.493Z,26.30
2023-07-30T09:24:12.479Z,25.50
2023-07-30T09:26:46.016Z,25.50
2023-07-30T09:29:13.148Z,25.60
2023-07-30T09:31:44.727Z,26.10
2023-07-30T09:34:11.743Z,26.70
2023-07-30T09:36:38.743Z,26.70
2023-07-30T09:39:05.753Z,26.70
2023-07-30T09:41:32.965Z,26.20
2023-07-30T09:44:00.057Z,26.00
2023-07-30T09:46:29.923Z,25.70
2023-07-30T09:48:57.134Z,25.20
2023-07-30T09:51:24.232Z,25.30
2023-07-30T09:53:51.244Z,25.20
2023-07-30T09:56:18.214Z,25.60
2023-07-30T09:58:45.293Z,25.30
2023-07-30T10:01:12.429Z,25.10
2023-07-30T10:03:39.514Z,24.80
2023-07-30T10:06:06.557Z,25.10
2023-07-30T10:08:35.408Z,25.00
2023-07-30T10:11:02.431Z,25.10
2023-07-30T10:13:30.126Z,24.60
2023-07-30T10:15:59.006Z,24.30
2023-07-30T10:18:41.768Z,24.20
2023-07-30T10:21:10.350Z,24.00
2023-07-30T10:23:37.440Z,24.00
2023-07-30T10:26:10.918Z,24.10
2023-07-30T10:28:40.508Z,24.20
2023-07-30T10:31:11.516Z,23.90
2023-07-30T10:33:48.667Z,23.80
2023-07-30T10:36:15.744Z,23.50
2023-07-30T10:38:43.515Z,23.40
2023-07-30T10:41:11.807Z,23.00
2023-07-30T10:43:42.263Z,23.00
2023-07-30T10:46:10.008Z,22.90
2023-07-30T10:48:38.013Z,22.60
2023-07-30T10:51:25.991Z,22.50
2023-07-30T10:53:54.311Z,22.30
2023-07-30T10:56:27.145Z,22.30
2023-07-30T10:58:54.693Z,22.30
2023-07-30T11:01:22.444Z,22.50
2023-07-30T11:03:50.070Z,22.60
2023-07-30T11:06:22.032Z,22.60
2023-07-30T11:08:49.022Z,22.70
2023-07-30T11:11:15.936Z,22.80
2023-07-30T11:13:49.993Z,22.90
2023-07-30T11:16:17.194Z,23.20
2023-07-30T11:18:44.617Z,23.10
2023-07-30T11:21:12.144Z,23.30
2023-07-30T11:23:39.826Z,23.30
2023-07-30T11:26:07.554Z,23.40
2023-07-30T11:28:37.641Z,23.40
2023-07-30T11:31:09.312Z,23.30
2023-07-30T11:33:36.734Z,23.10
2023-07-30T11:36:03.895Z,22.90
2023-07-30T11:38:31.408Z,22.70
2023-07-30T11:40:58.490Z,22.50
2023-07-30T11:43:25.591Z,22.20
2023-07-30T11:46:11.604Z,22.00
2023-07-30T11:48:39.163Z,22.00
2023-07-30T11:51:06.119Z,22.00
2023-07-30T11:53:50.740Z,21.80
2023-07-30T11:56:20.864Z,21.60
2023-07-30T11:58:49.008Z,21.40
2023-07-30T12:01:16.701Z,21.30
2023-07-30T12:03:43.873Z,21.00
2023-07-30T12:06:11.332Z,21.10
2023-07-30T12:08:38.516Z,21.00
2023-07-30T12:11:06.288Z,21.00
2023-07-30T12:13:33.312Z,21.00
2023-07-30T12:16:00.397Z,21.00
2023-07-30T12:18:27.631Z,20.90
2023-07-30T12:20:54.920Z,21.20
2023-07-30T12:23:22.144Z,21.30
2023-07-30T12:25:49.187Z,21.30
2023-07-30T12:28:16.237Z,21.10
2023-07-30T12:30:43.389Z,20.90
2023-07-30T12:33:10.443Z,21.10
2023-07-30T12:35:37.526Z,21.20
2023-07-30T12:38:04.518Z,21.40
2023-07-30T12:40:35.309Z,21.30
2023-07-30T12:43:03.255Z,21.40
2023-07-30T12:45:30.911Z,21.50
2023-07-30T12:47:57.977Z,21.40
2023-07-30T12:50:25.004Z,21.40
2023-07-30T12:52:52.288Z,21.30
2023-07-30T12:55:19.395Z,21.20
2023-07-30T12:57:46.540Z,21.10
2023-07-30T13:00:13.714Z,21.20
2023-07-30T13:02:41.162Z,21.10
2023-07-30T13:05:08.483Z,21.20
2023-07-30T13:07:35.486Z,21.20
2023-07-30T13:10:08.895Z,21.20
2023-07-30T13:12:36.028Z,21.30
2023-07-30T13:15:03.161Z,21.30
2023-07-30T13:17:30.241Z,21.20
2023-07-30T13:19:57.289Z,21.00
2023-07-30T13:22:24.290Z,20.90
2023-07-30T13:24:51.517Z,20.90
2023-07-30T13:27:18.665Z,21.00
2023-07-30T13:29:45.917Z,21.10
2023-07-30T13:32:13.089Z,21.00
2023-07-30T13:34:40.617Z,21.00
2023-07-30T13:37:07.739Z,21.20
2023-07-30T13:39:34.684Z,21.30
2023-07-30T13:42:01.651Z,21.30
2023-07-30T13:44:29.121Z,21.30
2023-07-30T13:46:56.348Z,21.20
2023-07-30T13:49:23.476Z,21.20
2023-07-30T13:51:50.644Z,21.10
2023-07-30T13:54:17.704Z,21.10
2023-07-30T13:56:44.781Z,21.20
2023-07-30T13:59:11.758Z,21.20
2023-07-30T14:01:38.945Z,21.30
2023-07-30T14:04:06.115Z,21.20
2023-07-30T14:06:33.216Z,21.20
2023-07-30T14:09:03.243Z,21.30
2023-07-30T14:11:30.255Z,21.50
2023-07-30T14:13:59.184Z,21.50
2023-07-30T14:16:26.353Z,21.50
2023-07-30T14:18:53.374Z,21.40
2023-07-30T14:21:20.440Z,21.30
2023-07-30T14:23:47.470Z,21.20
2023-07-30T14:26:14.498Z,20.90
2023-07-30T14:28:41.663Z,20.70
2023-07-30T14:31:08.741Z,20.60
2023-07-30T14:33:36.692Z,20.50
2023-07-30T14:36:05.198Z,20.50
2023-07-30T14:38:35.399Z,20.40
2023-07-30T14:41:03.674Z,20.40
2023-07-30T14:43:31.394Z,20.50
2023-07-30T14:45:58.482Z,20.40
2023-07-30T14:48:25.535Z,20.30
2023-07-30T14:50:52.507Z,20.20
2023-07-30T14:53:19.605Z,20.10
2023-07-30T14:55:46.566Z,20.20
2023-07-30T14:58:13.664Z,20.30
2023-07-30T15:00:40.811Z,20.30
2023-07-30T15:03:08.133Z,20.10
2023-07-30T15:05:35.293Z,20.20
2023-07-30T15:08:03.751Z,20.30
2023-07-30T15:10:30.867Z,20.30
2023-07-30T15:12:57.874Z,20.40
2023-07-30T15:15:25.115Z,20.30
2023-07-30T15:17:52.373Z,20.20
2023-07-30T15:20:19.530Z,20.00
2023-07-30T15:22:46.942Z,19.90
2023-07-30T15:25:13.908Z,19.90
2023-07-30T15:27:40.946Z,20.00
2023-07-30T15:30:08.129Z,20.10
2023-07-30T15:32:36.090Z,20.20
2023-07-30T15:35:03.116Z,20.10
2023-07-30T15:37:30.216Z,20.10
2023-07-30T15:39:57.243Z,20.10
2023-07-30T15:42:24.283Z,20.10
2023-07-30T15:44:51.224Z,20.20
2023-07-30T15:47:18.253Z,20.20
2023-07-30T15:49:45.216Z,20.10
2023-07-30T15:52:12.195Z,20.00
2023-07-30T15:54:39.271Z,19.90
2023-07-30T15:57:10.792Z,19.70
2023-07-30T15:59:39.986Z,19.60
2023-07-30T16:02:07.619Z,19.70
2023-07-30T16:04:34.870Z,19.60
2023-07-30T16:07:01.862Z,19.60
2023-07-30T16:09:28.875Z,19.50
2023-07-30T16:11:55.860Z,19.50
2023-07-30T16:14:23.912Z,19.50
2023-07-30T16:16:50.976Z,19.50
2023-07-30T16:19:19.058Z,19.40
2023-07-30T16:21:49.826Z,19.40
2023-07-30T16:24:17.020Z,19.30
2023-07-30T16:26:44.093Z,19.30
2023-07-30T16:29:11.183Z,19.30
2023-07-30T16:31:38.127Z,19.30
2023-07-30T16:34:05.092Z,19.30
2023-07-30T16:36:32.020Z,19.30
2023-07-30T16:38:59.118Z,19.30
2023-07-30T16:41:26.101Z,19.30
2023-07-30T16:43:53.067Z,19.30
2023-07-30T16:46:20.146Z,19.30
2023-07-30T16:48:47.123Z,19.30
2023-07-30T16:51:14.140Z,19.30
2023-07-30T16:53:41.134Z,19.40
2023-07-30T16:56:14.468Z,19.40
2023-07-30T16:58:41.625Z,19.40
2023-07-30T17:01:08.813Z,19.30
2023-07-30T17:03:36.838Z,19.30
2023-07-30T17:06:03.827Z,19.30
2023-07-30T17:08:31.227Z,19.30
2023-07-30T17:10:58.310Z,19.30
2023-07-30T17:13:25.401Z,19.20
2023-07-30T17:15:52.363Z,19.20
2023-07-30T17:18:19.617Z,19.10
2023-07-30T17:20:56.235Z,19.00
2023-07-30T17:23:23.249Z,19.10
2023-07-30T17:25:53.978Z,19.10
2023-07-30T17:28:21.066Z,19.10
2023-07-30T17:30:48.163Z,19.10
2023-07-30T17:33:15.264Z,19.10
2023-07-30T17:35:42.362Z,19.10
2023-07-30T17:38:09.672Z,19.20
2023-07-30T17:40:39.826Z,19.30
2023-07-30T17:43:06.826Z,19.30
2023-07-30T17:45:33.813Z,19.30
2023-07-30T17:48:00.817Z,19.30
2023-07-30T17:50:27.902Z,19.30
2023-07-30T17:52:54.951Z,19.30
2023-07-30T17:55:23.294Z,19.30
2023-07-30T18:00:46.336Z,19.40
2023-07-30T18:03:13.573Z,19.30
2023-07-30T18:05:48.462Z,19.20
2023-07-30T18:08:16.522Z,19.10
2023-07-30T18:10:44.917Z,19.10
2023-07-30T18:13:12.677Z,19.10
2023-07-30T18:15:39.651Z,19.10
2023-07-30T18:18:08.090Z,19.10
2023-07-30T18:20:35.484Z,19.10
2023-07-30T18:23:05.830Z,19.20
2023-07-30T18:25:32.870Z,19.20
2023-07-30T18:28:00.108Z,19.10
2023-07-30T18:30:27.084Z,19.20
2023-07-30T18:32:54.109Z,19.10
2023-07-30T18:35:21.130Z,19.10
2023-07-30T18:37:48.068Z,19.00
2023-07-30T18:40:15.263Z,19.00
2023-07-30T18:42:42.231Z,19.00
2023-07-30T18:45:09.339Z,19.00
2023-07-30T18:47:36.360Z,18.90
2023-07-30T18:50:04.861Z,18.90
2023-07-30T18:52:32.499Z,18.80
2023-07-30T18:54:59.507Z,18.90
2023-07-30T18:57:26.505Z,18.80
2023-07-30T18:59:53.469Z,18.80
2023-07-30T19:02:20.526Z,18.70
2023-07-30T19:04:47.598Z,18.70
2023-07-30T19:07:14.577Z,18.70
2023-07-30T19:09:41.637Z,18.70
2023-07-30T19:12:08.920Z,18.60
2023-07-30T19:14:35.889Z,18.60
2023-07-30T19:17:02.910Z,18.60
2023-07-30T19:19:29.970Z,18.50
2023-07-30T19:21:56.932Z,18.50
2023-07-30T19:24:24.054Z,18.50
2023-07-30T19:26:51.620Z,18.50
2023-07-30T19:29:18.583Z,18.50
2023-07-30T19:31:45.595Z,18.40
2023-07-30T19:34:12.834Z,18.40
2023-07-30T19:36:40.481Z,18.40
2023-07-30T19:39:08.212Z,18.40
2023-07-30T19:41:35.406Z,18.40
2023-07-30T19:44:02.625Z,18.30
2023-07-30T19:46:29.698Z,18.30
2023-07-30T19:48:57.260Z,18.30
2023-07-30T19:51:24.737Z,18.20
2023-07-30T19:53:51.734Z,18.20
2023-07-30T19:56:18.817Z,18.20
2023-07-30T19:58:45.923Z,18.20
2023-07-30T20:01:13.075Z,18.20
2023-07-30T20:03:40.101Z,18.10
2023-07-30T20:06:07.404Z,18.10
2023-07-30T20:08:37.942Z,18.10
2023-07-30T20:11:05.401Z,18.00
2023-07-30T20:13:32.459Z,18.00
2023-07-30T20:15:59.753Z,17.90
2023-07-30T20:18:27.422Z,17.90
2023-07-30T20:20:54.505Z,17.90
2023-07-30T20:23:22.890Z,18.00
2023-07-30T20:25:49.985Z,17.90
2023-07-30T20:28:16.990Z,17.90
2023-07-30T20:30:44.085Z,17.90
2023-07-30T20:33:11.097Z,17.90
2023-07-30T20:35:39.961Z,17.90
2023-07-30T20:38:07.060Z,17.90
2023-07-30T20:40:34.086Z,17.80
2023-07-30T20:43:01.080Z,17.70
2023-07-30T20:45:28.494Z,17.70
2023-07-30T20:47:55.558Z,17.70
2023-07-30T20:50:22.758Z,17.70
2023-07-30T20:52:49.851Z,17.70
2023-07-30T20:55:17.323Z,17.70
2023-07-30T20:57:44.498Z,17.80
2023-07-30T21:00:11.729Z,17.70
2023-07-30T21:02:38.864Z,17.70
2023-07-30T21:05:06.160Z,17.70
2023-07-30T21:07:33.249Z,17.70
2023-07-30T21:10:00.400Z,17.70
2023-07-30T21:12:27.494Z,17.60
2023-07-30T21:14:54.541Z,17.60
2023-07-30T21:17:21.571Z,17.70
2023-07-30T21:19:49.047Z,17.70
2023-07-30T21:22:16.079Z,17.60
2023-07-30T21:24:43.111Z,17.60
2023-07-30T21:27:10.220Z,17.60
2023-07-30T21:29:37.335Z,17.70
2023-07-30T21:32:04.576Z,17.70
2023-07-30T21:34:31.643Z,17.60
2023-07-30T21:36:58.620Z,17.50
2023-07-30T21:39:25.631Z,17.50
2023-07-30T21:41:52.592Z,17.60
2023-07-30T21:44:19.631Z,17.60
2023-07-30T21:46:46.675Z,17.60
2023-07-30T21:49:13.738Z,17.60
2023-07-30T21:51:40.694Z,17.60
2023-07-30T21:54:07.765Z,17.60
2023-07-30T21:56:34.770Z,17.50
2023-07-30T21:59:01.738Z,17.50
2023-07-30T22:01:28.754Z,17.50
2023-07-30T22:03:55.813Z,17.50
2023-07-30T22:06:22.754Z,17.50
2023-07-30T22:08:49.767Z,17.50
2023-07-30T22:11:17.154Z,17.40
2023-07-30T22:13:44.327Z,17.40
2023-07-30T22:16:11.395Z,17.40
2023-07-30T22:18:41.740Z,17.40
2023-07-30T22:21:09.554Z,17.30
2023-07-30T22:23:36.488Z,17.30
2023-07-30T22:26:03.487Z,17.30
2023-07-30T22:28:30.526Z,17.30
2023-07-30T22:30:57.552Z,17.30
2023-07-30T22:33:24.530Z,17.30
2023-07-30T22:35:55.676Z,17.30
2023-07-30T22:38:23.098Z,17.30
2023-07-30T22:40:50.086Z,17.30
2023-07-30T22:43:17.269Z,17.30
2023-07-30T22:45:44.256Z,17.30
2023-07-30T22:48:11.634Z,17.30
2023-07-30T22:50:38.727Z,17.30
2023-07-30T22:53:05.950Z,17.30
2023-07-30T22:55:32.893Z,17.30
2023-07-30T22:58:00.057Z,17.30
2023-07-30T23:00:27.010Z,17.30
2023-07-30T23:02:54.140Z,17.30
2023-07-30T23:05:21.236Z,17.30
2023-07-30T23:07:48.288Z,17.30
2023-07-30T23:10:15.362Z,17.30
2023-07-30T23:12:43.116Z,17.20
2023-07-30T23:15:10.064Z,17.30
2023-07-30T23:17:37.080Z,17.30
2023-07-30T23:20:04.175Z,17.30
2023-07-30T23:22:31.360Z,17.30
2023-07-30T23:24:58.398Z,17.30
2023-07-30T23:27:25.429Z,17.30
2023-07-30T23:29:52.395Z,17.40
2023-07-30T23:32:19.423Z,17.40
2023-07-30T23:34:46.371Z,17.40
2023-07-30T23:37:13.320Z,17.40
2023-07-30T23:39:40.415Z,17.40
2023-07-30T23:42:07.944Z,17.40
2023-07-30T23:44:34.879Z,17.30
2023-07-30T23:47:01.842Z,17.40
2023-07-30T23:49:28.821Z,17.40
2023-07-30T23:51:55.819Z,17.40
2023-07-30T23:54:22.773Z,17.40
2023-07-30T23:56:49.753Z,17.40
2023-07-30T23:59:16.705Z,17.30
